Time;durP1;ratioP1;P1;durP2;ratioP2;P2;SDS_P1;SDS_P2;PMS_P1;PMS_P2;Temp;Humidity;BMP_temperature;BMP_pressure;BME280_temperature;BME280_humidity;BME280_pressure;Samples;Min_cycle;Max_cycle;Signal;HPM_P1;HPM_P2
2024/01/07 00:02:07;;;;;;;;;;;11.30;90.00;;;;;;5073448;28;19932;-82
2024/01/07 00:04:34;;;;;;;;;;;11.00;90.00;;;;;;5074228;28;19916;-83
2024/01/07 00:06:59;;;;;;;;;;;11.10;90.00;;;;;;5055446;28;19995;-83
2024/01/07 00:09:25;;;;;;;;;;;11.30;90.00;;;;;;5073880;28;19916;-82
2024/01/07 00:11:50;;;;;;;;;;;11.30;90.00;;;;;;5057052;28;20016;-81
2024/01/07 00:14:16;;;;;;;;;;;11.40;90.00;;;;;;5057180;28;19909;-82
2024/01/07 00:16:42;;;;;;;;;;;12.00;90.20;;;;;;5057326;28;19893;-83
2024/01/07 00:19:07;;;;;;;;;;;11.20;90.00;;;;;;5057710;28;19955;-82
2024/01/07 00:21:33;;;;;;;;;;;11.70;90.10;;;;;;5057643;28;19904;-83
2024/01/07 00:23:59;;;;;;;;;;;11.30;90.00;;;;;;5057064;28;19900;-83
2024/01/07 00:26:24;;;;;;;;;;;11.70;90.10;;;;;;5056042;28;19909;-83
2024/01/07 00:28:50;;;;;;;;;;;11.30;90.00;;;;;;5057057;28;19971;-83
2024/01/07 00:31:15;;;;;;;;;;;11.30;90.00;;;;;;5056638;28;19909;-81
2024/01/07 00:33:41;;;;;;;;;;;11.20;90.00;;;;;;5073970;28;19948;-83
2024/01/07 00:36:07;;;;;;;;;;;12.00;90.20;;;;;;5056958;28;19984;-82
2024/01/07 00:38:32;;;;;;;;;;;11.30;90.00;;;;;;5058314;28;19939;-82
2024/01/07 00:40:58;;;;;;;;;;;11.30;90.00;;;;;;5039849;28;19943;-83
2024/01/07 00:43:23;;;;;;;;;;;11.40;90.00;;;;;;5075356;28;19893;-82
2024/01/07 00:45:49;;;;;;;;;;;11.30;90.00;;;;;;5056987;28;19909;-82
2024/01/07 00:48:15;;;;;;;;;;;11.30;90.00;;;;;;5056059;28;19936;-82
2024/01/07 00:50:40;;;;;;;;;;;11.40;90.00;;;;;;5073793;28;20293;-83
2024/01/07 00:53:06;;;;;;;;;;;11.40;90.00;;;;;;5057035;28;19916;-82
2024/01/07 00:55:31;;;;;;;;;;;11.30;90.00;;;;;;5056843;28;19916;-82
2024/01/07 00:57:56;;;;;;;;;;;11.20;90.00;;;;;;5056254;28;19918;-83
2024/01/07 01:00:22;;;;;;;;;;;11.30;90.00;;;;;;5075191;28;19900;-82
2024/01/07 01:02:47;;;;;;;;;;;11.20;90.00;;;;;;5075218;28;19954;-82
2024/01/07 01:05:13;;;;;;;;;;;11.50;90.00;;;;;;5057558;28;19893;-82
2024/01/07 01:07:38;;;;;;;;;;;11.20;90.00;;;;;;5056748;28;19908;-82
2024/01/07 01:10:04;;;;;;;;;;;11.30;90.00;;;;;;5057815;28;19924;-83
2024/01/07 01:12:29;;;;;;;;;;;11.30;90.00;;;;;;5057145;28;19916;-81
2024/01/07 01:14:55;;;;;;;;;;;11.30;90.00;;;;;;5055928;28;19908;-83
2024/01/07 01:17:20;;;;;;;;;;;12.30;90.20;;;;;;5055109;28;20289;-83
2024/01/07 01:19:46;;;;;;;;;;;11.30;90.20;;;;;;5056157;28;19909;-82
2024/01/07 01:22:11;;;;;;;;;;;11.30;90.00;;;;;;5056516;28;19893;-83
2024/01/07 01:24:37;;;;;;;;;;;11.10;89.90;;;;;;5055643;28;19909;-83
2024/01/07 01:27:02;;;;;;;;;;;11.50;90.00;;;;;;5057540;28;19909;-83
2024/01/07 01:29:28;;;;;;;;;;;11.00;89.80;;;;;;5058129;28;19913;-82
2024/01/07 01:31:53;;;;;;;;;;;11.30;90.00;;;;;;5058614;28;19892;-81
2024/01/07 01:34:19;;;;;;;;;;;11.10;89.90;;;;;;5058936;28;19909;-82
2024/01/07 01:36:44;;;;;;;;;;;11.20;90.00;;;;;;5059080;28;19940;-82
2024/01/07 01:39:10;;;;;;;;;;;11.30;90.00;;;;;;5074987;28;19932;-82
2024/01/07 01:41:35;;;;;;;;;;;11.30;90.00;;;;;;5057892;28;19893;-83
2024/01/07 01:44:01;;;;;;;;;;;11.30;90.00;;;;;;5057992;28;19913;-82
2024/01/07 01:46:28;;;;;;;;;;;11.30;90.00;;;;;;5056428;28;19974;-81
2024/01/07 01:48:54;;;;;;;;;;;11.30;90.00;;;;;;5056273;28;19923;-83
2024/01/07 01:51:22;;;;;;;;;;;11.30;90.00;;;;;;5039328;28;21865;-81
2024/01/07 01:53:47;;;;;;;;;;;11.30;90.00;;;;;;5056242;28;20374;-82
2024/01/07 01:56:13;;;;;;;;;;;11.40;90.00;;;;;;5055671;28;19909;-82
2024/01/07 01:58:39;;;;;;;;;;;11.20;90.00;;;;;;5056563;28;19952;-81
2024/01/07 02:01:04;;;;;;;;;;;11.30;90.00;;;;;;5074507;28;19905;-82
2024/01/07 02:03:30;;;;;;;;;;;11.20;89.90;;;;;;5073868;28;19912;-83
2024/01/07 02:05:56;;;;;;;;;;;11.30;90.00;;;;;;5055967;28;19905;-81
2024/01/07 02:08:22;;;;;;;;;;;11.30;90.00;;;;;;5056478;28;19939;-81
2024/01/07 02:10:47;;;;;;;;;;;11.30;90.00;;;;;;5074199;28;19909;-82
2024/01/07 02:13:13;;;;;;;;;;;11.30;90.00;;;;;;5073225;28;19935;-82
2024/01/07 02:15:38;;;;;;;;;;;11.50;90.00;;;;;;5056235;28;19916;-82
2024/01/07 02:18:04;;;;;;;;;;;11.20;89.90;;;;;;5058835;28;19909;-83
2024/01/07 02:20:29;;;;;;;;;;;11.20;89.90;;;;;;5058942;28;19909;-83
2024/01/07 02:22:57;;;;;;;;;;;11.40;90.00;;;;;;5076797;28;19952;-83
2024/01/07 02:25:23;;;;;;;;;;;11.30;90.00;;;;;;5059654;28;19893;-82
2024/01/07 02:27:48;;;;;;;;;;;11.30;90.00;;;;;;5059074;28;19916;-82
2024/01/07 02:30:14;;;;;;;;;;;11.30;89.90;;;;;;5056663;28;19913;-83
2024/01/07 02:32:39;;;;;;;;;;;11.40;90.00;;;;;;5058352;28;19951;-82
2024/01/07 02:35:05;;;;;;;;;;;12.50;90.20;;;;;;5057594;28;19916;-83
2024/01/07 02:37:31;;;;;;;;;;;11.20;89.80;;;;;;5057953;28;19913;-83
2024/01/07 02:39:56;;;;;;;;;;;11.30;89.90;;;;;;5060419;28;19909;-81
2024/01/07 02:42:22;;;;;;;;;;;11.40;90.00;;;;;;5060533;28;19913;-83
2024/01/07 02:44:47;;;;;;;;;;;11.30;89.90;;;;;;5060937;28;19912;-83
2024/01/07 02:47:13;;;;;;;;;;;12.20;90.20;;;;;;5060547;28;19909;-82
2024/01/07 02:49:38;;;;;;;;;;;11.20;89.90;;;;;;5076422;28;19923;-83
2024/01/07 02:52:04;;;;;;;;;;;11.20;89.80;;;;;;5059890;28;19931;-81
2024/01/07 02:54:29;;;;;;;;;;;11.20;89.90;;;;;;5058683;28;19893;-83
2024/01/07 02:56:54;;;;;;;;;;;11.30;89.90;;;;;;5059004;28;19928;-82
2024/01/07 02:59:20;;;;;;;;;;;11.20;89.90;;;;;;5059136;28;19909;-82
2024/01/07 03:01:46;;;;;;;;;;;11.30;89.90;;;;;;5059945;28;19980;-83
2024/01/07 03:04:12;;;;;;;;;;;11.30;89.90;;;;;;5059745;28;19935;-83
2024/01/07 03:06:40;;;;;;;;;;;11.50;90.00;;;;;;5058472;28;19909;-82
2024/01/07 03:09:06;;;;;;;;;;;11.40;90.00;;;;;;5059005;28;19920;-83
2024/01/07 03:11:32;;;;;;;;;;;11.20;89.90;;;;;;5060578;28;19972;-83
2024/01/07 03:13:57;;;;;;;;;;;11.20;89.90;;;;;;5056227;28;19909;-83
2024/01/07 03:16:23;;;;;;;;;;;11.20;89.90;;;;;;5057931;28;19893;-82
2024/01/07 03:18:49;;;;;;;;;;;12.30;90.20;;;;;;5058051;28;19915;-82
2024/01/07 03:21:18;;;;;;;;;;;11.20;89.90;;;;;;5058158;28;19900;-82
2024/01/07 03:23:44;;;;;;;;;;;11.00;89.80;;;;;;5058196;28;19893;-82
2024/01/07 03:26:09;;;;;;;;;;;11.20;89.80;;;;;;5075458;28;19923;-82
2024/01/07 03:28:35;;;;;;;;;;;11.30;89.90;;;;;;5057663;28;20016;-82
2024/01/07 03:31:05;;;;;;;;;;;11.40;90.00;;;;;;5058825;28;19916;-83
2024/01/07 03:33:30;;;;;;;;;;;11.40;90.00;;;;;;5075577;28;19963;-83
2024/01/07 03:35:56;;;;;;;;;;;11.40;89.90;;;;;;5056929;28;19893;-81
2024/01/07 03:38:21;;;;;;;;;;;11.30;89.80;;;;;;5059183;28;19936;-83
2024/01/07 03:40:47;;;;;;;;;;;11.30;89.80;;;;;;5057759;28;19916;-82
2024/01/07 03:43:12;;;;;;;;;;;11.80;90.00;;;;;;5054593;28;19909;-82
2024/01/07 03:45:38;;;;;;;;;;;11.30;89.80;;;;;;5056534;28;19957;-83
2024/01/07 03:48:03;;;;;;;;;;;11.30;89.80;;;;;;5055929;28;19893;-81
2024/01/07 03:50:29;;;;;;;;;;;11.20;89.80;;;;;;5056860;28;19913;-83
2024/01/07 03:52:55;;;;;;;;;;;11.20;89.90;;;;;;5050866;28;19909;-81
2024/01/07 03:55:21;;;;;;;;;;;11.20;89.80;;;;;;5048492;28;19921;-82
2024/01/07 03:57:46;;;;;;;;;;;11.30;89.90;;;;;;5038154;28;19957;-82
2024/01/07 04:00:12;;;;;;;;;;;11.00;89.70;;;;;;5038583;28;19913;-82
2024/01/07 04:02:37;;;;;;;;;;;11.20;89.80;;;;;;5038163;28;19916;-83
2024/01/07 04:05:03;;;;;;;;;;;11.30;89.90;;;;;;5038224;28;19972;-83
2024/01/07 04:07:29;;;;;;;;;;;11.20;89.80;;;;;;5037407;28;19916;-82
2024/01/07 04:09:54;;;;;;;;;;;11.30;89.80;;;;;;5055360;28;20008;-83
2024/01/07 04:12:21;;;;;;;;;;;11.20;89.80;;;;;;5056659;28;19909;-81
2024/01/07 04:14:46;;;;;;;;;;;11.20;89.80;;;;;;5038759;28;19977;-83
2024/01/07 04:17:12;;;;;;;;;;;11.10;89.70;;;;;;5054906;28;19908;-82
2024/01/07 04:19:38;;;;;;;;;;;11.20;89.80;;;;;;5039368;28;19910;-82
2024/01/07 04:22:03;;;;;;;;;;;11.30;89.80;;;;;;5040031;28;19897;-83
2024/01/07 04:24:29;;;;;;;;;;;11.20;89.80;;;;;;5040376;28;19900;-82
2024/01/07 04:26:54;;;;;;;;;;;11.20;89.80;;;;;;5039327;28;19973;-82
2024/01/07 04:29:20;;;;;;;;;;;11.20;89.70;;;;;;5055852;28;19901;-81
2024/01/07 04:31:45;;;;;;;;;;;11.30;89.80;;;;;;5039427;28;19952;-82
2024/01/07 04:34:11;;;;;;;;;;;11.20;89.70;;;;;;5037927;28;19920;-82
2024/01/07 04:36:36;;;;;;;;;;;11.30;89.80;;;;;;5037659;28;19893;-83
2024/01/07 04:39:02;;;;;;;;;;;11.30;89.80;;;;;;5054829;28;19909;-83
2024/01/07 04:41:27;;;;;;;;;;;12.00;90.00;;;;;;5038206;28;19963;-83
2024/01/07 04:43:53;;;;;;;;;;;11.80;90.00;;;;;;5055895;28;19893;-83
2024/01/07 04:46:18;;;;;;;;;;;11.30;89.80;;;;;;5038516;28;19959;-82
2024/01/07 04:48:44;;;;;;;;;;;11.40;89.80;;;;;;5038965;28;19965;-81
2024/01/07 04:51:09;;;;;;;;;;;11.40;89.80;;;;;;5054890;28;20022;-82
2024/01/07 04:53:35;;;;;;;;;;;11.30;89.80;;;;;;5054690;28;19972;-83
2024/01/07 04:56:01;;;;;;;;;;;11.20;89.70;;;;;;5037464;28;19899;-83
2024/01/07 04:58:26;;;;;;;;;;;11.30;89.80;;;;;;5037768;28;20377;-83
2024/01/07 05:00:51;;;;;;;;;;;11.30;89.80;;;;;;5040407;28;19917;-83
2024/01/07 05:03:17;;;;;;;;;;;11.40;89.90;;;;;;5042431;28;19928;-83
2024/01/07 05:05:42;;;;;;;;;;;11.30;89.80;;;;;;5041630;28;19893;-81
2024/01/07 05:08:08;;;;;;;;;;;11.30;89.70;;;;;;5041082;28;19905;-83
2024/01/07 05:10:33;;;;;;;;;;;12.20;90.10;;;;;;5056760;28;19921;-83
2024/01/07 05:13:04;;;;;;;;;;;12.00;90.00;;;;;;5057655;28;19893;-83
2024/01/07 05:15:30;;;;;;;;;;;11.70;90.00;;;;;;5057259;28;19915;-83
2024/01/07 05:17:55;;;;;;;;;;;11.20;89.70;;;;;;5040309;28;19893;-82
2024/01/07 05:20:21;;;;;;;;;;;11.20;89.70;;;;;;5040124;28;19913;-82
2024/01/07 05:22:46;;;;;;;;;;;12.60;90.20;;;;;;5039276;28;19968;-82
2024/01/07 05:25:12;;;;;;;;;;;11.20;89.70;;;;;;5040452;28;19912;-83
2024/01/07 05:27:38;;;;;;;;;;;11.20;89.70;;;;;;5039619;28;19909;-82
2024/01/07 05:30:03;;;;;;;;;;;11.20;89.70;;;;;;5057245;28;19913;-82
2024/01/07 05:32:29;;;;;;;;;;;11.10;89.60;;;;;;5040332;28;19909;-82
2024/01/07 05:34:54;;;;;;;;;;;11.20;89.70;;;;;;5040990;28;19920;-83
2024/01/07 05:37:20;;;;;;;;;;;11.30;89.70;;;;;;5040393;28;19893;-83
2024/01/07 05:39:47;;;;;;;;;;;11.20;89.70;;;;;;5041000;28;20000;-82
2024/01/07 05:42:12;;;;;;;;;;;11.30;89.80;;;;;;5041507;28;19909;-83
2024/01/07 05:44:37;;;;;;;;;;;11.20;89.70;;;;;;5041373;28;19916;-83
2024/01/07 05:47:04;;;;;;;;;;;11.00;89.60;;;;;;5039798;28;19913;-81
2024/01/07 05:49:29;;;;;;;;;;;11.20;89.60;;;;;;5038613;28;20284;-82
2024/01/07 05:51:54;;;;;;;;;;;11.10;89.60;;;;;;5055666;28;19909;-82
2024/01/07 05:54:20;;;;;;;;;;;11.20;89.70;;;;;;5056507;28;19979;-83
2024/01/07 05:56:45;;;;;;;;;;;11.30;89.80;;;;;;5056896;28;19909;-82
2024/01/07 05:59:11;;;;;;;;;;;11.70;90.00;;;;;;5057924;28;19913;-83
2024/01/07 06:01:36;;;;;;;;;;;11.20;89.70;;;;;;5057910;28;19931;-83
2024/01/07 06:04:02;;;;;;;;;;;11.30;89.70;;;;;;5056153;28;20365;-82
2024/01/07 06:06:27;;;;;;;;;;;11.10;89.60;;;;;;5057687;28;19909;-83
2024/01/07 06:08:53;;;;;;;;;;;11.20;89.70;;;;;;5058694;28;19944;-83
2024/01/07 06:11:20;;;;;;;;;;;11.30;89.70;;;;;;5058979;28;19972;-83
2024/01/07 06:13:46;;;;;;;;;;;11.20;89.70;;;;;;5060131;28;19893;-84
2024/01/07 06:16:11;;;;;;;;;;;11.10;89.60;;;;;;5059478;28;19952;-83
2024/01/07 06:18:37;;;;;;;;;;;11.20;89.70;;;;;;5060064;28;19954;-83
2024/01/07 06:21:02;;;;;;;;;;;11.20;89.70;;;;;;5076644;28;19915;-83
2024/01/07 06:23:28;;;;;;;;;;;11.20;89.70;;;;;;5061208;28;19912;-82
2024/01/07 06:25:53;;;;;;;;;;;11.30;89.70;;;;;;5059993;28;19916;-82
2024/01/07 06:28:18;;;;;;;;;;;11.50;89.80;;;;;;5075828;28;19943;-82
2024/01/07 06:30:44;;;;;;;;;;;11.20;89.60;;;;;;5070820;28;19905;-82
2024/01/07 06:33:09;;;;;;;;;;;12.00;90.00;;;;;;5056382;28;19915;-83
2024/01/07 06:35:35;;;;;;;;;;;10.40;89.10;;;;;;5057297;28;19909;-82
2024/01/07 06:38:00;;;;;;;;;;;10.70;89.30;;;;;;5058705;28;19901;-84
2024/01/07 06:40:26;;;;;;;;;;;11.20;89.50;;;;;;5078458;28;19897;-83
2024/01/07 06:42:51;;;;;;;;;;;11.20;89.60;;;;;;5061127;28;19908;-84
2024/01/07 06:45:17;;;;;;;;;;;11.00;89.50;;;;;;5060802;28;19901;-83
2024/01/07 06:47:42;;;;;;;;;;;11.30;89.60;;;;;;5060451;28;19903;-83
2024/01/07 06:50:09;;;;;;;;;;;11.40;89.70;;;;;;5060467;28;19916;-83
2024/01/07 06:52:34;;;;;;;;;;;11.10;89.50;;;;;;5060028;28;19917;-84
2024/01/07 06:55:00;;;;;;;;;;;11.20;89.60;;;;;;5061087;28;19909;-83
2024/01/07 06:57:26;;;;;;;;;;;11.70;89.80;;;;;;5060745;28;19892;-83
2024/01/07 06:59:52;;;;;;;;;;;11.30;89.60;;;;;;5060622;28;19919;-83
2024/01/07 07:02:17;;;;;;;;;;;11.20;89.50;;;;;;5061204;28;19893;-84
2024/01/07 07:04:42;;;;;;;;;;;11.20;89.60;;;;;;5060689;28;19913;-83
2024/01/07 07:07:08;;;;;;;;;;;11.20;89.50;;;;;;5059939;28;19900;-83
2024/01/07 07:09:34;;;;;;;;;;;11.20;89.50;;;;;;5060443;28;19901;-83
2024/01/07 07:11:59;;;;;;;;;;;11.20;89.50;;;;;;5061133;28;19948;-82
2024/01/07 07:14:25;;;;;;;;;;;11.50;89.70;;;;;;5078114;28;19952;-83
2024/01/07 07:16:50;;;;;;;;;;;11.20;89.50;;;;;;5077838;28;19909;-84
2024/01/07 07:19:16;;;;;;;;;;;11.30;89.50;;;;;;5060587;28;19904;-83
2024/01/07 07:21:43;;;;;;;;;;;11.40;89.60;;;;;;5059354;28;19924;-82
2024/01/07 07:24:09;;;;;;;;;;;11.20;89.40;;;;;;5060681;28;19909;-82
2024/01/07 07:26:35;;;;;;;;;;;11.20;89.40;;;;;;5060195;28;19908;-83
2024/01/07 07:29:01;;;;;;;;;;;11.20;89.50;;;;;;5060488;28;19921;-82
2024/01/07 07:31:27;;;;;;;;;;;11.10;89.30;;;;;;5060370;28;19922;-83
2024/01/07 07:33:52;;;;;;;;;;;11.20;89.40;;;;;;5060302;28;19920;-83
2024/01/07 07:36:18;;;;;;;;;;;11.40;89.60;;;;;;5059536;28;19893;-82
2024/01/07 07:38:43;;;;;;;;;;;11.20;89.40;;;;;;5060098;28;19932;-84
2024/01/07 07:41:09;;;;;;;;;;;11.30;89.50;;;;;;5077216;28;19896;-83
2024/01/07 07:43:34;;;;;;;;;;;11.10;89.30;;;;;;5077123;28;19912;-83
2024/01/07 07:46:03;;;;;;;;;;;11.20;89.40;;;;;;5059883;28;19918;-84
2024/01/07 07:48:28;;;;;;;;;;;11.00;89.30;;;;;;5059888;28;19921;-83
2024/01/07 07:50:54;;;;;;;;;;;11.20;89.40;;;;;;5059838;28;19959;-83
2024/01/07 07:53:20;;;;;;;;;;;11.10;89.40;;;;;;5058507;28;19893;-82
2024/01/07 07:55:45;;;;;;;;;;;11.10;89.30;;;;;;5058798;28;19916;-82
2024/01/07 07:58:10;;;;;;;;;;;11.90;89.80;;;;;;5056625;28;19966;-83
2024/01/07 08:00:36;;;;;;;;;;;12.40;90.00;;;;;;5057562;28;19909;-84
2024/01/07 08:03:02;;;;;;;;;;;11.20;89.40;;;;;;5060297;28;20335;-83
2024/01/07 08:05:28;;;;;;;;;;;11.40;89.50;;;;;;5060991;28;19996;-84
2024/01/07 08:07:55;;;;;;;;;;;11.40;89.50;;;;;;5059988;28;19897;-84
2024/01/07 08:10:22;;;;;;;;;;;11.20;89.40;;;;;;5077518;28;19905;-83
2024/01/07 08:12:49;;;;;;;;;;;11.50;89.60;;;;;;5060195;28;19897;-82
2024/01/07 08:15:14;;;;;;;;;;;11.20;89.40;;;;;;5060549;28;19900;-83
2024/01/07 08:17:40;;;;;;;;;;;11.10;89.30;;;;;;5059559;28;19913;-82
2024/01/07 08:20:06;;;;;;;;;;;11.10;89.30;;;;;;5060350;28;19915;-83
2024/01/07 08:22:31;;;;;;;;;;;11.20;89.50;;;;;;5060570;28;20001;-83
2024/01/07 08:24:57;;;;;;;;;;;11.20;89.40;;;;;;5060305;28;19935;-83
2024/01/07 08:27:22;;;;;;;;;;;11.60;89.60;;;;;;5059678;28;19920;-83
2024/01/07 08:29:48;;;;;;;;;;;11.10;89.30;;;;;;5059935;28;19975;-83
2024/01/07 08:32:13;;;;;;;;;;;11.10;89.30;;;;;;5059633;28;19897;-83
2024/01/07 08:34:39;;;;;;;;;;;11.30;89.40;;;;;;5062473;28;19944;-83
2024/01/07 08:37:05;;;;;;;;;;;11.10;89.30;;;;;;5063497;28;19897;-83
2024/01/07 08:39:31;;;;;;;;;;;11.20;89.30;;;;;;5075779;28;19932;-84
2024/01/07 08:41:59;;;;;;;;;;;11.10;89.80;;;;;;5075218;28;19916;-82
2024/01/07 08:44:25;;;;;;;;;;;11.00;89.20;;;;;;5057344;28;19956;-83
2024/01/07 08:46:51;;;;;;;;;;;11.00;89.20;;;;;;5058172;28;19913;-82
2024/01/07 08:49:16;;;;;;;;;;;11.10;89.20;;;;;;5054045;28;19939;-82
2024/01/07 08:51:42;;;;;;;;;;;11.20;89.30;;;;;;5054444;28;19979;-82
2024/01/07 08:54:08;;;;;;;;;;;11.10;89.20;;;;;;5061427;28;19909;-84
2024/01/07 08:56:33;;;;;;;;;;;11.20;89.20;;;;;;5057697;28;19909;-83
2024/01/07 08:59:00;;;;;;;;;;;11.20;89.20;;;;;;5058390;28;19905;-81
2024/01/07 09:01:26;;;;;;;;;;;11.10;89.20;;;;;;5055858;28;19968;-81
2024/01/07 09:03:52;;;;;;;;;;;11.10;89.10;;;;;;5056446;28;19913;-83
2024/01/07 09:06:29;;;;;;;;;;;11.10;89.20;;;;;;5061015;28;19919;-81
2024/01/07 09:09:01;;;;;;;;;;;11.20;89.20;;;;;;5507291;23;19908;-84
2024/01/07 09:11:27;;;;;;;;;;;11.60;89.40;;;;;;5056490;28;19916;-82
2024/01/07 09:14:00;;;;;;;;;;;11.10;89.10;;;;;;5070660;28;19897;-83
2024/01/07 09:16:26;;;;;;;;;;;10.50;88.80;;;;;;5063742;28;19901;-82
2024/01/07 09:19:21;;;;;;;;;;;11.20;89.10;;;;;;5081094;28;19949;-84
2024/01/07 10:11:02;;;;;;;;;;;11.10;89.00;;;;;;5076100;28;19930;-82
2024/01/07 10:13:28;;;;;;;;;;;11.20;89.10;;;;;;5061489;28;19913;-83
2024/01/07 10:15:54;;;;;;;;;;;11.10;89.00;;;;;;5061374;28;19897;-84
2024/01/07 10:18:20;;;;;;;;;;;11.70;89.30;;;;;;5062115;28;19932;-83
2024/01/07 10:20:46;;;;;;;;;;;11.10;88.90;;;;;;5060135;28;19899;-80
2024/01/07 10:23:17;;;;;;;;;;;12.10;89.50;;;;;;5042486;28;19905;-79
2024/01/07 10:53:49;;;;;;;;;;;11.10;88.00;;;;;;4977151;28;19917;-79
2024/01/07 10:56:24;;;;;;;;;;;11.10;87.90;;;;;;4976545;28;19910;-79
2024/01/07 10:59:18;;;;;;;;;;;11.10;88.00;;;;;;4991701;28;19910;-80
2024/01/07 11:05:05;;;;;;;;;;;11.10;88.00;;;;;;5011844;28;19911;-79
2024/01/07 11:07:51;;;;;;;;;;;11.10;88.10;;;;;;5034861;28;19932;-80
2024/01/07 11:10:25;;;;;;;;;;;11.10;88.10;;;;;;5035796;28;19928;-77
2024/01/07 11:13:10;;;;;;;;;;;11.10;88.20;;;;;;5034844;28;19996;-78
2024/01/07 11:15:48;;;;;;;;;;;11.10;88.30;;;;;;5023656;28;19973;-80
2024/01/07 11:18:18;;;;;;;;;;;11.10;88.20;;;;;;5020622;28;20282;-79
2024/01/07 11:20:54;;;;;;;;;;;11.10;88.20;;;;;;5035769;28;19909;-81
2024/01/07 11:23:30;;;;;;;;;;;11.10;88.20;;;;;;5035845;28;19910;-79
2024/01/07 11:25:56;;;;;;;;;;;11.20;88.30;;;;;;5035582;28;19936;-80
2024/01/07 11:28:42;;;;;;;;;;;11.10;88.30;;;;;;5039869;28;20384;-81
2024/01/07 11:34:34;;;;;;;;;;;11.10;88.30;;;;;;5039496;28;19940;-81
2024/01/07 11:36:59;;;;;;;;;;;11.10;88.30;;;;;;5021952;28;19909;-81
2024/01/07 11:39:31;;;;;;;;;;;11.10;88.40;;;;;;5037134;28;20000;-80
2024/01/07 11:41:56;;;;;;;;;;;11.20;88.50;;;;;;5002554;28;19909;-81
2024/01/07 11:44:22;;;;;;;;;;;11.10;88.40;;;;;;5018339;28;20289;-81
2024/01/07 11:46:49;;;;;;;;;;;11.10;88.40;;;;;;5000734;28;19921;-81
2024/01/07 11:49:15;;;;;;;;;;;11.10;88.40;;;;;;4999623;28;19921;-80
2024/01/07 11:51:44;;;;;;;;;;;11.10;88.40;;;;;;4999511;28;19916;-81
2024/01/07 11:54:13;;;;;;;;;;;11.30;89.10;;;;;;5000010;28;20270;-80
2024/01/07 11:56:45;;;;;;;;;;;11.10;88.40;;;;;;5000512;28;19913;-81
2024/01/07 11:59:13;;;;;;;;;;;11.10;88.40;;;;;;5002024;28;19910;-81
2024/01/07 12:01:51;;;;;;;;;;;11.20;88.50;;;;;;5017258;28;19909;-81
2024/01/07 12:04:17;;;;;;;;;;;11.00;88.40;;;;;;5018850;28;20004;-82
2024/01/07 12:06:44;;;;;;;;;;;11.10;88.50;;;;;;5003071;28;19916;-82
2024/01/07 12:09:13;;;;;;;;;;;11.40;88.70;;;;;;5000953;28;19913;-81
2024/01/07 12:11:42;;;;;;;;;;;11.20;88.60;;;;;;5001307;28;20414;-82
2024/01/07 12:23:18;;;;;;;;;;;11.10;88.50;;;;;;5007180;28;20344;-80
2024/01/07 12:25:43;;;;;;;;;;;11.20;88.60;;;;;;5001137;28;19914;-79
2024/01/07 12:28:21;;;;;;;;;;;11.10;88.50;;;;;;5003475;28;19914;-81
2024/01/07 12:30:50;;;;;;;;;;;11.20;88.60;;;;;;5004028;28;19913;-81
2024/01/07 12:33:22;;;;;;;;;;;11.10;88.50;;;;;;5001628;28;19917;-81
2024/01/07 12:35:48;;;;;;;;;;;11.10;88.50;;;;;;5003452;28;19980;-81
2024/01/07 12:38:14;;;;;;;;;;;11.30;88.70;;;;;;5004103;28;19961;-81
2024/01/07 12:40:40;;;;;;;;;;;11.10;88.60;;;;;;5004464;28;19917;-81
2024/01/07 12:43:09;;;;;;;;;;;11.00;88.50;;;;;;5017173;28;20004;-81
2024/01/07 12:45:35;;;;;;;;;;;11.20;88.60;;;;;;5001977;28;19913;-82
2024/01/07 12:48:03;;;;;;;;;;;11.20;88.60;;;;;;5001367;28;20381;-81
2024/01/07 12:50:32;;;;;;;;;;;11.20;88.60;;;;;;4999106;28;19955;-81
2024/01/07 12:52:58;;;;;;;;;;;12.60;89.40;;;;;;4999844;28;19917;-80
2024/01/07 12:55:30;;;;;;;;;;;11.10;88.50;;;;;;5000665;28;19910;-81
2024/01/07 12:58:04;;;;;;;;;;;11.10;88.60;;;;;;5017332;28;19967;-80
2024/01/07 13:00:30;;;;;;;;;;;11.10;88.60;;;;;;5015969;28;19913;-80
2024/01/07 13:02:56;;;;;;;;;;;11.20;88.60;;;;;;4999751;28;19917;-81
2024/01/07 13:05:22;;;;;;;;;;;11.00;88.50;;;;;;4999904;28;20000;-80
2024/01/07 13:07:47;;;;;;;;;;;12.00;89.00;;;;;;4998608;28;20363;-81
2024/01/07 13:10:16;;;;;;;;;;;11.10;88.60;;;;;;5016435;28;19913;-80
2024/01/07 13:12:54;;;;;;;;;;;11.10;88.60;;;;;;4999162;28;19921;-80
2024/01/07 13:37:28;;;;;;;;;;;11.20;88.60;;;;;;4980171;28;19928;-80
2024/01/07 13:46:32;;;;;;;;;;;11.00;88.50;;;;;;5042627;28;20686;-79
2024/01/07 13:55:23;;;;;;;;;;;11.10;88.50;;;;;;4879093;29;19980;-82
2024/01/07 13:58:11;;;;;;;;;;;11.00;88.40;;;;;;4907598;29;19915;-81
2024/01/07 14:24:50;;;;;;;;;;;11.10;88.50;;;;;;5014739;28;19925;-81
2024/01/07 14:27:15;;;;;;;;;;;11.00;88.40;;;;;;5031362;28;19916;-81
2024/01/07 14:29:41;;;;;;;;;;;11.00;88.50;;;;;;4999012;28;19968;-80
2024/01/07 14:32:07;;;;;;;;;;;10.80;88.40;;;;;;5014545;28;19909;-79
2024/01/07 14:34:32;;;;;;;;;;;11.10;88.60;;;;;;5014701;28;19910;-81
2024/01/07 14:36:58;;;;;;;;;;;11.20;88.60;;;;;;5014656;28;19924;-80
2024/01/07 14:39:23;;;;;;;;;;;11.30;88.60;;;;;;5015721;28;19980;-80
2024/01/07 14:41:49;;;;;;;;;;;11.10;88.60;;;;;;5014486;28;19911;-80
2024/01/07 14:44:14;;;;;;;;;;;11.10;88.50;;;;;;5014501;28;19957;-81
2024/01/07 14:46:40;;;;;;;;;;;11.00;88.40;;;;;;5014392;28;19913;-81
2024/01/07 14:49:06;;;;;;;;;;;11.30;88.60;;;;;;5014180;28;19914;-81
2024/01/07 14:51:32;;;;;;;;;;;11.10;88.50;;;;;;5014307;28;19996;-81
2024/01/07 14:53:57;;;;;;;;;;;11.10;88.50;;;;;;5014338;28;19952;-81
2024/01/07 14:56:23;;;;;;;;;;;11.00;88.40;;;;;;5014121;28;19914;-80
2024/01/07 14:58:48;;;;;;;;;;;11.10;88.50;;;;;;5014116;28;19909;-79
2024/01/07 15:01:14;;;;;;;;;;;11.90;88.90;;;;;;5014031;28;19910;-81
2024/01/07 15:03:40;;;;;;;;;;;11.00;88.40;;;;;;5015443;28;19909;-80
2024/01/07 15:06:08;;;;;;;;;;;11.10;88.50;;;;;;5014126;28;20374;-81
2024/01/07 15:08:33;;;;;;;;;;;11.00;88.40;;;;;;5014125;28;19920;-80
2024/01/07 15:10:58;;;;;;;;;;;11.20;88.60;;;;;;5013915;28;19985;-81
2024/01/07 15:13:26;;;;;;;;;;;11.00;88.40;;;;;;5013849;28;19909;-81
2024/01/07 15:15:52;;;;;;;;;;;11.00;88.40;;;;;;5013811;28;19909;-81
2024/01/07 15:18:17;;;;;;;;;;;11.60;88.80;;;;;;5013767;28;20436;-80
2024/01/07 15:20:43;;;;;;;;;;;11.00;88.50;;;;;;5013861;28;19968;-81
2024/01/07 15:23:08;;;;;;;;;;;11.20;89.00;;;;;;5013452;28;19917;-81
2024/01/07 15:25:34;;;;;;;;;;;11.00;88.40;;;;;;5013723;28;19913;-79
2024/01/07 15:27:59;;;;;;;;;;;11.00;88.40;;;;;;5013703;28;19963;-79
2024/01/07 15:30:25;;;;;;;;;;;11.00;88.40;;;;;;5013515;28;19914;-81
2024/01/07 15:32:50;;;;;;;;;;;11.00;88.40;;;;;;5013585;28;19909;-81
2024/01/07 15:35:16;;;;;;;;;;;11.00;88.40;;;;;;5013952;28;19917;-80
2024/01/07 15:37:42;;;;;;;;;;;11.10;88.20;;;;;;5014699;28;19967;-80
2024/01/07 15:40:07;;;;;;;;;;;11.00;88.20;;;;;;5015657;28;19913;-80
2024/01/07 15:42:33;;;;;;;;;;;11.10;88.40;;;;;;5014547;28;19913;-80
2024/01/07 15:44:58;;;;;;;;;;;10.90;88.30;;;;;;5015905;28;19909;-81
2024/01/07 15:47:24;;;;;;;;;;;11.00;88.20;;;;;;5015911;28;19972;-81
2024/01/07 15:49:49;;;;;;;;;;;11.00;88.20;;;;;;5018579;28;19913;-81
2024/01/07 15:52:15;;;;;;;;;;;11.00;88.00;;;;;;5017397;28;20008;-80
2024/01/07 15:54:41;;;;;;;;;;;11.10;88.10;;;;;;4996756;28;19910;-81
2024/01/07 15:57:06;;;;;;;;;;;11.00;88.00;;;;;;5001318;28;19917;-80
2024/01/07 15:59:32;;;;;;;;;;;11.00;88.10;;;;;;5011274;28;19909;-82
2024/01/07 16:01:58;;;;;;;;;;;11.00;88.00;;;;;;5021504;28;19910;-82
2024/01/07 16:04:23;;;;;;;;;;;11.10;88.20;;;;;;5017964;28;20338;-83
2024/01/07 16:06:49;;;;;;;;;;;11.00;88.00;;;;;;5015764;28;19909;-81
2024/01/07 16:09:14;;;;;;;;;;;11.10;88.10;;;;;;5020150;28;19937;-81
2024/01/07 16:11:42;;;;;;;;;;;11.10;88.10;;;;;;5022090;28;19910;-81
2024/01/07 16:14:08;;;;;;;;;;;11.10;88.20;;;;;;5020159;28;19910;-82
2024/01/07 16:16:35;;;;;;;;;;;11.20;88.20;;;;;;5022000;28;19913;-81
2024/01/07 16:19:01;;;;;;;;;;;11.00;88.00;;;;;;5021311;28;20001;-82
2024/01/07 16:21:26;;;;;;;;;;;10.90;87.80;;;;;;5030052;28;20028;-80
2024/01/07 16:27:02;;;;;;;;;;;11.00;87.50;;;;;;5017295;28;19920;-81
2024/01/07 16:29:27;;;;;;;;;;;11.00;87.60;;;;;;5012638;28;19917;-81
2024/01/07 16:31:52;;;;;;;;;;;10.90;87.60;;;;;;5012556;28;20072;-80
2024/01/07 16:34:18;;;;;;;;;;;11.00;87.70;;;;;;5012660;28;19909;-80
2024/01/07 16:36:43;;;;;;;;;;;11.00;87.70;;;;;;5013769;28;19968;-81
2024/01/07 16:39:09;;;;;;;;;;;11.00;87.80;;;;;;5012712;28;19913;-81
2024/01/07 16:41:35;;;;;;;;;;;11.00;87.80;;;;;;5012506;28;20469;-80
2024/01/07 16:44:00;;;;;;;;;;;11.00;87.90;;;;;;5012735;28;20389;-80
2024/01/07 16:46:26;;;;;;;;;;;11.00;87.80;;;;;;5013813;28;19916;-80
2024/01/07 16:48:52;;;;;;;;;;;11.00;87.80;;;;;;5012366;28;19917;-80